sensor_id;sensor_type;location;lat;lon;timestamp;temperature;humidity
47338;DHT22;33069;51.970;5.892;2023-03-01T00:01:25;1.30;62.60
47338;DHT22;33069;51.970;5.892;2023-03-01T00:03:52;1.50;62.60
47338;DHT22;33069;51.970;5.892;2023-03-01T00:06:19;1.50;62.10
47338;DHT22;33069;51.970;5.892;2023-03-01T00:08:45;1.40;62.30
47338;DHT22;33069;51.970;5.892;2023-03-01T00:11:27;1.30;62.70
47338;DHT22;33069;51.970;5.892;2023-03-01T00:13:55;1.30;62.90
47338;DHT22;33069;51.970;5.892;2023-03-01T00:16:28;1.20;62.90
47338;DHT22;33069;51.970;5.892;2023-03-01T00:18:55;1.30;63.00
47338;DHT22;33069;51.970;5.892;2023-03-01T00:21:22;1.20;63.20
47338;DHT22;33069;51.970;5.892;2023-03-01T00:23:48;1.10;63.30
47338;DHT22;33069;51.970;5.892;2023-03-01T00:26:15;1.10;63.50
47338;DHT22;33069;51.970;5.892;2023-03-01T00:28:41;1.10;63.50
47338;DHT22;33069;51.970;5.892;2023-03-01T00:31:10;1.20;63.50
47338;DHT22;33069;51.970;5.892;2023-03-01T00:33:36;1.10;63.50
47338;DHT22;33069;51.970;5.892;2023-03-01T00:36:02;1.00;63.70
47338;DHT22;33069;51.970;5.892;2023-03-01T00:38:28;1.00;63.80
47338;DHT22;33069;51.970;5.892;2023-03-01T00:40:54;1.30;63.40
47338;DHT22;33069;51.970;5.892;2023-03-01T00:43:20;1.30;63.00
47338;DHT22;33069;51.970;5.892;2023-03-01T00:45:46;1.20;63.50
47338;DHT22;33069;51.970;5.892;2023-03-01T00:48:12;1.10;63.50
47338;DHT22;33069;51.970;5.892;2023-03-01T00:50:38;1.00;63.70
47338;DHT22;33069;51.970;5.892;2023-03-01T00:53:03;1.00;63.90
47338;DHT22;33069;51.970;5.892;2023-03-01T00:55:30;1.00;63.80
47338;DHT22;33069;51.970;5.892;2023-03-01T00:57:56;1.10;63.60
47338;DHT22;33069;51.970;5.892;2023-03-01T01:00:22;1.10;63.50
47338;DHT22;33069;51.970;5.892;2023-03-01T01:02:47;1.00;63.80
47338;DHT22;33069;51.970;5.892;2023-03-01T01:05:13;1.20;63.90
47338;DHT22;33069;51.970;5.892;2023-03-01T01:07:39;1.20;63.60
47338;DHT22;33069;51.970;5.892;2023-03-01T01:10:06;0.90;63.90
47338;DHT22;33069;51.970;5.892;2023-03-01T01:12:32;0.80;64.20
47338;DHT22;33069;51.970;5.892;2023-03-01T01:14:58;0.70;64.50
47338;DHT22;33069;51.970;5.892;2023-03-01T01:17:24;0.60;65.00
47338;DHT22;33069;51.970;5.892;2023-03-01T01:19:50;0.60;65.60
47338;DHT22;33069;51.970;5.892;2023-03-01T01:22:15;0.60;65.40
47338;DHT22;33069;51.970;5.892;2023-03-01T01:24:41;0.50;65.40
47338;DHT22;33069;51.970;5.892;2023-03-01T01:27:07;0.50;65.80
47338;DHT22;33069;51.970;5.892;2023-03-01T01:29:32;0.50;65.70
47338;DHT22;33069;51.970;5.892;2023-03-01T01:31:58;0.30;65.60
47338;DHT22;33069;51.970;5.892;2023-03-01T01:34:24;0.30;65.90
47338;DHT22;33069;51.970;5.892;2023-03-01T01:36:51;0.30;66.00
47338;DHT22;33069;51.970;5.892;2023-03-01T01:39:21;0.30;66.10
47338;DHT22;33069;51.970;5.892;2023-03-01T01:41:47;0.00;66.10
47338;DHT22;33069;51.970;5.892;2023-03-01T01:44:23;0.00;66.50
47338;DHT22;33069;51.970;5.892;2023-03-01T01:47:11;-3276.70;66.90
47338;DHT22;33069;51.970;5.892;2023-03-01T01:49:44;-3276.60;66.90
47338;DHT22;33069;51.970;5.892;2023-03-01T01:52:25;-3276.70;66.70
47338;DHT22;33069;51.970;5.892;2023-03-01T01:54:57;0.00;66.20
47338;DHT22;33069;51.970;5.892;2023-03-01T01:57:39;0.00;66.10
47338;DHT22;33069;51.970;5.892;2023-03-01T02:02:40;0.00;66.00
47338;DHT22;33069;51.970;5.892;2023-03-01T02:07:53;0.00;65.90
47338;DHT22;33069;51.970;5.892;2023-03-01T02:10:20;0.10;65.90
47338;DHT22;33069;51.970;5.892;2023-03-01T02:12:46;0.20;65.90
47338;DHT22;33069;51.970;5.892;2023-03-01T02:15:12;0.20;65.80
47338;DHT22;33069;51.970;5.892;2023-03-01T02:17:38;0.10;65.50
47338;DHT22;33069;51.970;5.892;2023-03-01T02:20:27;0.10;65.90
47338;DHT22;33069;51.970;5.892;2023-03-01T02:22:57;0.00;65.70
47338;DHT22;33069;51.970;5.892;2023-03-01T02:25:44;0.00;65.90
47338;DHT22;33069;51.970;5.892;2023-03-01T02:30:46;0.00;66.10
47338;DHT22;33069;51.970;5.892;2023-03-01T02:33:33;0.00;66.00
47338;DHT22;33069;51.970;5.892;2023-03-01T02:36:04;0.00;66.10
47338;DHT22;33069;51.970;5.892;2023-03-01T02:38:31;0.00;66.10
47338;DHT22;33069;51.970;5.892;2023-03-01T02:40:57;0.00;66.20
47338;DHT22;33069;51.970;5.892;2023-03-01T02:43:28;0.00;66.30
47338;DHT22;33069;51.970;5.892;2023-03-01T02:45:58;0.00;66.10
47338;DHT22;33069;51.970;5.892;2023-03-01T02:48:23;0.10;66.00
47338;DHT22;33069;51.970;5.892;2023-03-01T02:56:41;0.00;66.00
47338;DHT22;33069;51.970;5.892;2023-03-01T02:59:08;0.00;66.00
47338;DHT22;33069;51.970;5.892;2023-03-01T03:01:34;0.00;65.90
47338;DHT22;33069;51.970;5.892;2023-03-01T03:04:08;0.10;66.10
47338;DHT22;33069;51.970;5.892;2023-03-01T03:06:35;0.00;66.10
47338;DHT22;33069;51.970;5.892;2023-03-01T03:09:02;0.10;66.30
47338;DHT22;33069;51.970;5.892;2023-03-01T03:11:28;0.10;66.10
47338;DHT22;33069;51.970;5.892;2023-03-01T03:13:53;0.20;65.90
47338;DHT22;33069;51.970;5.892;2023-03-01T03:16:20;0.20;65.80
47338;DHT22;33069;51.970;5.892;2023-03-01T03:18:45;0.30;66.10
47338;DHT22;33069;51.970;5.892;2023-03-01T03:21:12;0.50;65.50
47338;DHT22;33069;51.970;5.892;2023-03-01T03:23:38;0.40;65.10
47338;DHT22;33069;51.970;5.892;2023-03-01T03:26:05;0.30;65.20
47338;DHT22;33069;51.970;5.892;2023-03-01T03:28:34;0.20;65.40
47338;DHT22;33069;51.970;5.892;2023-03-01T03:31:00;0.10;65.80
47338;DHT22;33069;51.970;5.892;2023-03-01T03:33:30;0.00;65.90
47338;DHT22;33069;51.970;5.892;2023-03-01T03:35:56;0.00;66.20
47338;DHT22;33069;51.970;5.892;2023-03-01T03:38:22;0.10;66.00
47338;DHT22;33069;51.970;5.892;2023-03-01T03:41:00;0.30;66.40
47338;DHT22;33069;51.970;5.892;2023-03-01T03:43:30;0.10;66.10
47338;DHT22;33069;51.970;5.892;2023-03-01T03:45:57;0.10;66.20
47338;DHT22;33069;51.970;5.892;2023-03-01T03:48:23;0.20;66.20
47338;DHT22;33069;51.970;5.892;2023-03-01T03:50:52;0.20;66.20
47338;DHT22;33069;51.970;5.892;2023-03-01T03:53:19;0.20;66.10
47338;DHT22;33069;51.970;5.892;2023-03-01T03:55:45;0.20;66.00
47338;DHT22;33069;51.970;5.892;2023-03-01T03:58:11;0.30;66.00
47338;DHT22;33069;51.970;5.892;2023-03-01T04:00:42;0.40;65.90
47338;DHT22;33069;51.970;5.892;2023-03-01T04:03:09;0.30;65.90
47338;DHT22;33069;51.970;5.892;2023-03-01T04:05:35;0.30;66.30
47338;DHT22;33069;51.970;5.892;2023-03-01T04:08:01;0.40;66.40
47338;DHT22;33069;51.970;5.892;2023-03-01T04:10:29;0.30;66.00
47338;DHT22;33069;51.970;5.892;2023-03-01T04:12:55;0.00;66.20
47338;DHT22;33069;51.970;5.892;2023-03-01T04:15:22;0.00;66.50
47338;DHT22;33069;51.970;5.892;2023-03-01T04:17:51;0.00;66.90
47338;DHT22;33069;51.970;5.892;2023-03-01T04:20:37;0.00;67.10
47338;DHT22;33069;51.970;5.892;2023-03-01T04:23:15;0.00;67.20
47338;DHT22;33069;51.970;5.892;2023-03-01T04:28:41;0.00;67.00
47338;DHT22;33069;51.970;5.892;2023-03-01T04:31:11;0.00;66.90
47338;DHT22;33069;51.970;5.892;2023-03-01T04:33:42;0.00;67.20
47338;DHT22;33069;51.970;5.892;2023-03-01T04:36:09;0.00;67.00
47338;DHT22;33069;51.970;5.892;2023-03-01T04:38:37;0.00;67.10
47338;DHT22;33069;51.970;5.892;2023-03-01T04:41:08;0.00;67.00
47338;DHT22;33069;51.970;5.892;2023-03-01T04:43:35;0.00;67.50
47338;DHT22;33069;51.970;5.892;2023-03-01T04:46:08;0.00;67.50
47338;DHT22;33069;51.970;5.892;2023-03-01T04:48:36;0.00;67.20
47338;DHT22;33069;51.970;5.892;2023-03-01T04:51:03;0.00;67.40
47338;DHT22;33069;51.970;5.892;2023-03-01T04:53:29;0.00;67.30
47338;DHT22;33069;51.970;5.892;2023-03-01T04:55:56;0.00;67.60
47338;DHT22;33069;51.970;5.892;2023-03-01T04:58:27;0.00;67.60
47338;DHT22;33069;51.970;5.892;2023-03-01T05:00:54;0.00;67.50
47338;DHT22;33069;51.970;5.892;2023-03-01T05:03:20;0.00;67.30
47338;DHT22;33069;51.970;5.892;2023-03-01T05:05:49;0.10;67.40
47338;DHT22;33069;51.970;5.892;2023-03-01T05:08:15;0.00;67.30
47338;DHT22;33069;51.970;5.892;2023-03-01T05:10:50;0.10;67.30
47338;DHT22;33069;51.970;5.892;2023-03-01T05:13:17;0.10;67.20
47338;DHT22;33069;51.970;5.892;2023-03-01T05:15:48;0.30;67.10
47338;DHT22;33069;51.970;5.892;2023-03-01T05:18:14;0.00;66.70
47338;DHT22;33069;51.970;5.892;2023-03-01T05:20:40;0.00;67.00
47338;DHT22;33069;51.970;5.892;2023-03-01T05:23:06;0.00;67.50
47338;DHT22;33069;51.970;5.892;2023-03-01T05:25:35;0.00;67.50
47338;DHT22;33069;51.970;5.892;2023-03-01T05:28:06;0.20;66.90
47338;DHT22;33069;51.970;5.892;2023-03-01T05:30:33;0.20;66.80
47338;DHT22;33069;51.970;5.892;2023-03-01T05:33:00;0.30;66.90
47338;DHT22;33069;51.970;5.892;2023-03-01T05:35:26;0.10;66.80
47338;DHT22;33069;51.970;5.892;2023-03-01T05:37:53;0.20;67.40
47338;DHT22;33069;51.970;5.892;2023-03-01T05:40:21;0.20;67.40
47338;DHT22;33069;51.970;5.892;2023-03-01T05:42:55;0.20;67.50
47338;DHT22;33069;51.970;5.892;2023-03-01T05:45:23;0.00;67.40
47338;DHT22;33069;51.970;5.892;2023-03-01T05:47:49;0.10;67.50
47338;DHT22;33069;51.970;5.892;2023-03-01T05:50:26;0.30;67.40
47338;DHT22;33069;51.970;5.892;2023-03-01T05:53:06;0.10;67.00
47338;DHT22;33069;51.970;5.892;2023-03-01T05:55:34;0.00;67.40
47338;DHT22;33069;51.970;5.892;2023-03-01T05:58:02;0.10;67.60
47338;DHT22;33069;51.970;5.892;2023-03-01T06:00:29;0.00;67.30
47338;DHT22;33069;51.970;5.892;2023-03-01T06:02:55;0.00;67.70
47338;DHT22;33069;51.970;5.892;2023-03-01T06:05:22;-3276.70;67.60
47338;DHT22;33069;51.970;5.892;2023-03-01T06:07:48;0.00;67.60
47338;DHT22;33069;51.970;5.892;2023-03-01T06:10:16;-3276.70;67.60
47338;DHT22;33069;51.970;5.892;2023-03-01T06:12:42;-3276.70;67.70
47338;DHT22;33069;51.970;5.892;2023-03-01T06:15:10;0.00;68.10
47338;DHT22;33069;51.970;5.892;2023-03-01T06:17:37;0.30;67.40
47338;DHT22;33069;51.970;5.892;2023-03-01T06:20:05;0.30;67.20
47338;DHT22;33069;51.970;5.892;2023-03-01T06:22:32;0.30;67.20
47338;DHT22;33069;51.970;5.892;2023-03-01T06:24:57;0.00;67.30
47338;DHT22;33069;51.970;5.892;2023-03-01T06:27:23;0.00;67.80
47338;DHT22;33069;51.970;5.892;2023-03-01T06:29:49;0.10;67.80
47338;DHT22;33069;51.970;5.892;2023-03-01T06:32:15;0.00;67.70
47338;DHT22;33069;51.970;5.892;2023-03-01T06:34:40;-3276.70;67.90
47338;DHT22;33069;51.970;5.892;2023-03-01T06:37:07;-3276.70;68.20
47338;DHT22;33069;51.970;5.892;2023-03-01T06:39:32;-3276.70;68.20
47338;DHT22;33069;51.970;5.892;2023-03-01T06:41:59;0.00;68.60
47338;DHT22;33069;51.970;5.892;2023-03-01T06:44:25;0.10;68.60
47338;DHT22;33069;51.970;5.892;2023-03-01T06:46:51;0.20;68.60
47338;DHT22;33069;51.970;5.892;2023-03-01T06:49:17;0.30;68.20
47338;DHT22;33069;51.970;5.892;2023-03-01T06:51:44;0.30;68.10
47338;DHT22;33069;51.970;5.892;2023-03-01T06:54:10;0.20;68.50
47338;DHT22;33069;51.970;5.892;2023-03-01T06:56:38;0.00;68.70
47338;DHT22;33069;51.970;5.892;2023-03-01T06:59:04;-3276.70;68.90
47338;DHT22;33069;51.970;5.892;2023-03-01T07:01:30;0.00;69.30
47338;DHT22;33069;51.970;5.892;2023-03-01T07:03:56;0.20;69.30
47338;DHT22;33069;51.970;5.892;2023-03-01T07:06:22;0.40;68.30
47338;DHT22;33069;51.970;5.892;2023-03-01T07:08:48;0.40;67.90
47338;DHT22;33069;51.970;5.892;2023-03-01T07:11:15;0.50;67.30
47338;DHT22;33069;51.970;5.892;2023-03-01T07:13:41;0.50;67.20
47338;DHT22;33069;51.970;5.892;2023-03-01T07:16:07;0.50;66.90
47338;DHT22;33069;51.970;5.892;2023-03-01T07:18:33;0.50;66.90
47338;DHT22;33069;51.970;5.892;2023-03-01T07:21:04;0.40;67.10
47338;DHT22;33069;51.970;5.892;2023-03-01T07:23:30;0.30;67.10
47338;DHT22;33069;51.970;5.892;2023-03-01T07:25:56;0.40;67.20
47338;DHT22;33069;51.970;5.892;2023-03-01T07:28:25;0.40;67.00
47338;DHT22;33069;51.970;5.892;2023-03-01T07:30:51;0.70;67.20
47338;DHT22;33069;51.970;5.892;2023-03-01T07:33:17;0.70;66.50
47338;DHT22;33069;51.970;5.892;2023-03-01T07:35:43;0.70;66.60
47338;DHT22;33069;51.970;5.892;2023-03-01T07:38:09;0.70;66.30
47338;DHT22;33069;51.970;5.892;2023-03-01T07:40:35;0.80;66.30
47338;DHT22;33069;51.970;5.892;2023-03-01T07:43:01;0.90;66.30
47338;DHT22;33069;51.970;5.892;2023-03-01T07:45:27;1.20;66.00
47338;DHT22;33069;51.970;5.892;2023-03-01T07:47:54;1.30;65.30
47338;DHT22;33069;51.970;5.892;2023-03-01T07:50:20;1.50;65.20
47338;DHT22;33069;51.970;5.892;2023-03-01T07:52:46;1.40;65.20
47338;DHT22;33069;51.970;5.892;2023-03-01T07:55:12;1.50;65.40
47338;DHT22;33069;51.970;5.892;2023-03-01T07:57:39;1.30;65.60
47338;DHT22;33069;51.970;5.892;2023-03-01T08:00:05;1.10;66.10
47338;DHT22;33069;51.970;5.892;2023-03-01T08:02:31;1.10;66.60
47338;DHT22;33069;51.970;5.892;2023-03-01T08:04:57;1.30;66.10
47338;DHT22;33069;51.970;5.892;2023-03-01T08:07:23;1.50;65.60
47338;DHT22;33069;51.970;5.892;2023-03-01T08:09:48;1.40;65.60
47338;DHT22;33069;51.970;5.892;2023-03-01T08:12:14;1.50;65.10
47338;DHT22;33069;51.970;5.892;2023-03-01T08:14:42;1.40;65.30
47338;DHT22;33069;51.970;5.892;2023-03-01T08:17:08;1.50;65.30
47338;DHT22;33069;51.970;5.892;2023-03-01T08:19:33;1.90;64.70
47338;DHT22;33069;51.970;5.892;2023-03-01T08:22:02;1.90;64.60
47338;DHT22;33069;51.970;5.892;2023-03-01T08:24:28;2.00;64.20
47338;DHT22;33069;51.970;5.892;2023-03-01T08:26:54;2.10;63.80
47338;DHT22;33069;51.970;5.892;2023-03-01T08:29:21;2.00;63.70
47338;DHT22;33069;51.970;5.892;2023-03-01T08:31:47;2.10;63.80
47338;DHT22;33069;51.970;5.892;2023-03-01T08:34:15;2.00;63.80
47338;DHT22;33069;51.970;5.892;2023-03-01T08:36:42;2.10;63.80
47338;DHT22;33069;51.970;5.892;2023-03-01T08:39:10;2.00;64.40
47338;DHT22;33069;51.970;5.892;2023-03-01T08:41:36;2.10;64.50
47338;DHT22;33069;51.970;5.892;2023-03-01T08:44:03;2.40;63.80
47338;DHT22;33069;51.970;5.892;2023-03-01T08:46:34;2.50;63.20
47338;DHT22;33069;51.970;5.892;2023-03-01T08:49:06;2.70;63.40
47338;DHT22;33069;51.970;5.892;2023-03-01T08:51:33;2.70;62.90
47338;DHT22;33069;51.970;5.892;2023-03-01T08:54:06;2.70;62.40
47338;DHT22;33069;51.970;5.892;2023-03-01T08:56:33;3.00;62.20
47338;DHT22;33069;51.970;5.892;2023-03-01T08:58:59;3.00;62.20
47338;DHT22;33069;51.970;5.892;2023-03-01T09:01:25;3.00;61.60
47338;DHT22;33069;51.970;5.892;2023-03-01T09:03:50;2.90;61.50
47338;DHT22;33069;51.970;5.892;2023-03-01T09:06:16;2.90;61.80
47338;DHT22;33069;51.970;5.892;2023-03-01T09:08:45;3.00;61.70
47338;DHT22;33069;51.970;5.892;2023-03-01T09:11:13;3.30;61.10
47338;DHT22;33069;51.970;5.892;2023-03-01T09:13:40;3.20;60.40
47338;DHT22;33069;51.970;5.892;2023-03-01T09:16:07;3.20;60.50
47338;DHT22;33069;51.970;5.892;2023-03-01T09:18:34;3.30;60.60
47338;DHT22;33069;51.970;5.892;2023-03-01T09:21:07;3.40;60.10
47338;DHT22;33069;51.970;5.892;2023-03-01T09:23:37;3.40;59.90
47338;DHT22;33069;51.970;5.892;2023-03-01T09:26:05;3.20;60.40
47338;DHT22;33069;51.970;5.892;2023-03-01T09:28:32;3.20;60.60
47338;DHT22;33069;51.970;5.892;2023-03-01T09:30:59;3.30;60.10
47338;DHT22;33069;51.970;5.892;2023-03-01T09:33:25;3.20;60.20
47338;DHT22;33069;51.970;5.892;2023-03-01T09:35:59;3.70;59.80
47338;DHT22;33069;51.970;5.892;2023-03-01T09:38:26;3.80;59.40
47338;DHT22;33069;51.970;5.892;2023-03-01T09:40:52;3.90;58.70
47338;DHT22;33069;51.970;5.892;2023-03-01T09:43:43;3.70;58.60
47338;DHT22;33069;51.970;5.892;2023-03-01T09:46:11;4.00;58.00
47338;DHT22;33069;51.970;5.892;2023-03-01T09:48:50;3.80;58.40
47338;DHT22;33069;51.970;5.892;2023-03-01T09:51:35;4.00;59.20
47338;DHT22;33069;51.970;5.892;2023-03-01T09:54:04;4.20;58.80
47338;DHT22;33069;51.970;5.892;2023-03-01T09:56:36;4.20;58.20
47338;DHT22;33069;51.970;5.892;2023-03-01T10:09:39;4.20;57.40
47338;DHT22;33069;51.970;5.892;2023-03-01T10:12:14;4.20;56.60
47338;DHT22;33069;51.970;5.892;2023-03-01T10:17:34;4.20;56.30
47338;DHT22;33069;51.970;5.892;2023-03-01T10:20:37;4.30;55.30
47338;DHT22;33069;51.970;5.892;2023-03-01T10:23:08;4.20;55.90
47338;DHT22;33069;51.970;5.892;2023-03-01T10:31:24;4.50;54.70
47338;DHT22;33069;51.970;5.892;2023-03-01T10:33:54;4.40;55.40
47338;DHT22;33069;51.970;5.892;2023-03-01T10:36:23;4.30;55.60
47338;DHT22;33069;51.970;5.892;2023-03-01T10:41:19;4.50;55.50
47338;DHT22;33069;51.970;5.892;2023-03-01T10:46:37;4.60;55.10
47338;DHT22;33069;51.970;5.892;2023-03-01T10:49:07;4.60;55.40
47338;DHT22;33069;51.970;5.892;2023-03-01T10:51:33;4.70;54.80
47338;DHT22;33069;51.970;5.892;2023-03-01T10:53:58;4.90;54.80
47338;DHT22;33069;51.970;5.892;2023-03-01T10:56:24;5.00;54.60
47338;DHT22;33069;51.970;5.892;2023-03-01T10:58:59;5.00;53.90
47338;DHT22;33069;51.970;5.892;2023-03-01T11:01:29;5.10;54.30
47338;DHT22;33069;51.970;5.892;2023-03-01T11:06:33;4.80;54.00
47338;DHT22;33069;51.970;5.892;2023-03-01T11:09:23;5.00;53.60
47338;DHT22;33069;51.970;5.892;2023-03-01T11:11:54;4.90;53.00
47338;DHT22;33069;51.970;5.892;2023-03-01T11:14:22;4.80;53.60
47338;DHT22;33069;51.970;5.892;2023-03-01T11:17:03;4.80;53.60
47338;DHT22;33069;51.970;5.892;2023-03-01T11:19:30;5.20;53.20
47338;DHT22;33069;51.970;5.892;2023-03-01T11:22:17;5.10;52.90
47338;DHT22;33069;51.970;5.892;2023-03-01T11:24:51;5.40;51.60
47338;DHT22;33069;51.970;5.892;2023-03-01T11:27:27;5.20;51.50
47338;DHT22;33069;51.970;5.892;2023-03-01T11:30:05;5.40;51.60
47338;DHT22;33069;51.970;5.892;2023-03-01T11:32:44;5.50;51.80
47338;DHT22;33069;51.970;5.892;2023-03-01T11:35:20;5.60;51.80
47338;DHT22;33069;51.970;5.892;2023-03-01T11:40:34;5.70;51.10
47338;DHT22;33069;51.970;5.892;2023-03-01T11:51:02;5.70;50.00
47338;DHT22;33069;51.970;5.892;2023-03-01T11:56:29;5.80;50.90
47338;DHT22;33069;51.970;5.892;2023-03-01T12:02:21;5.80;50.30
47338;DHT22;33069;51.970;5.892;2023-03-01T12:08:13;6.10;50.40
47338;DHT22;33069;51.970;5.892;2023-03-01T12:16:51;5.70;50.80
47338;DHT22;33069;51.970;5.892;2023-03-01T12:19:42;5.80;49.80
47338;DHT22;33069;51.970;5.892;2023-03-01T12:22:37;5.90;50.20
47338;DHT22;33069;51.970;5.892;2023-03-01T12:28:24;6.00;49.00
47338;DHT22;33069;51.970;5.892;2023-03-01T12:50:55;6.50;48.40
47338;DHT22;33069;51.970;5.892;2023-03-01T12:53:23;6.40;47.30
47338;DHT22;33069;51.970;5.892;2023-03-01T12:55:52;6.50;47.00
47338;DHT22;33069;51.970;5.892;2023-03-01T13:06:54;6.30;46.10
47338;DHT22;33069;51.970;5.892;2023-03-01T13:11:48;6.30;47.10
47338;DHT22;33069;51.970;5.892;2023-03-01T13:16:46;6.80;45.70
47338;DHT22;33069;51.970;5.892;2023-03-01T13:19:19;6.80;46.10
47338;DHT22;33069;51.970;5.892;2023-03-01T13:21:46;6.80;45.70
47338;DHT22;33069;51.970;5.892;2023-03-01T13:24:42;6.90;45.40
47338;DHT22;33069;51.970;5.892;2023-03-01T13:29:52;6.90;45.50
47338;DHT22;33069;51.970;5.892;2023-03-01T13:37:36;7.10;46.10
47338;DHT22;33069;51.970;5.892;2023-03-01T13:42:53;7.10;46.90
47338;DHT22;33069;51.970;5.892;2023-03-01T13:45:32;7.20;46.10
47338;DHT22;33069;51.970;5.892;2023-03-01T13:48:04;7.30;47.00
47338;DHT22;33069;51.970;5.892;2023-03-01T13:50:38;7.40;44.40
47338;DHT22;33069;51.970;5.892;2023-03-01T13:53:15;7.30;45.30
47338;DHT22;33069;51.970;5.892;2023-03-01T13:56:33;7.40;44.70
47338;DHT22;33069;51.970;5.892;2023-03-01T13:59:04;7.60;44.00
47338;DHT22;33069;51.970;5.892;2023-03-01T14:01:35;7.70;42.60
47338;DHT22;33069;51.970;5.892;2023-03-01T14:04:03;8.00;42.20
47338;DHT22;33069;51.970;5.892;2023-03-01T14:06:31;8.30;41.70
47338;DHT22;33069;51.970;5.892;2023-03-01T14:09:04;8.20;41.40
47338;DHT22;33069;51.970;5.892;2023-03-01T14:17:48;8.70;40.60
47338;DHT22;33069;51.970;5.892;2023-03-01T14:20:26;8.60;41.10
47338;DHT22;33069;51.970;5.892;2023-03-01T14:22:55;8.40;41.80
47338;DHT22;33069;51.970;5.892;2023-03-01T14:30:41;8.80;41.90
47338;DHT22;33069;51.970;5.892;2023-03-01T14:36:06;8.70;42.00
47338;DHT22;33069;51.970;5.892;2023-03-01T14:41:00;8.20;41.40
47338;DHT22;33069;51.970;5.892;2023-03-01T14:43:29;8.30;41.60
47338;DHT22;33069;51.970;5.892;2023-03-01T14:45:55;8.40;41.40
47338;DHT22;33069;51.970;5.892;2023-03-01T14:48:21;8.30;42.70
47338;DHT22;33069;51.970;5.892;2023-03-01T14:50:48;8.50;41.50
47338;DHT22;33069;51.970;5.892;2023-03-01T14:53:27;8.60;40.10
47338;DHT22;33069;51.970;5.892;2023-03-01T14:55:55;8.50;40.50
47338;DHT22;33069;51.970;5.892;2023-03-01T14:58:24;8.50;40.60
47338;DHT22;33069;51.970;5.892;2023-03-01T15:01:02;8.30;40.00
47338;DHT22;33069;51.970;5.892;2023-03-01T15:03:35;8.50;40.30
47338;DHT22;33069;51.970;5.892;2023-03-01T15:06:03;8.30;40.20
47338;DHT22;33069;51.970;5.892;2023-03-01T15:08:31;8.30;40.20
47338;DHT22;33069;51.970;5.892;2023-03-01T15:11:21;8.30;39.70
47338;DHT22;33069;51.970;5.892;2023-03-01T15:13:48;8.40;39.60
47338;DHT22;33069;51.970;5.892;2023-03-01T15:16:17;8.60;39.30
47338;DHT22;33069;51.970;5.892;2023-03-01T15:18:50;8.80;39.00
47338;DHT22;33069;51.970;5.892;2023-03-01T15:21:22;8.90;39.30
47338;DHT22;33069;51.970;5.892;2023-03-01T15:23:54;9.00;38.40
47338;DHT22;33069;51.970;5.892;2023-03-01T15:26:28;8.50;38.20
47338;DHT22;33069;51.970;5.892;2023-03-01T15:28:55;8.10;40.40
47338;DHT22;33069;51.970;5.892;2023-03-01T15:31:37;8.30;40.20
47338;DHT22;33069;51.970;5.892;2023-03-01T15:34:36;8.90;39.40
47338;DHT22;33069;51.970;5.892;2023-03-01T15:37:32;8.80;39.90
47338;DHT22;33069;51.970;5.892;2023-03-01T15:39:54;8.70;39.70
47338;DHT22;33069;51.970;5.892;2023-03-01T15:50:22;8.80;40.90
47338;DHT22;33069;51.970;5.892;2023-03-01T15:52:49;8.70;41.10
47338;DHT22;33069;51.970;5.892;2023-03-01T15:57:45;9.00;39.90
47338;DHT22;33069;51.970;5.892;2023-03-01T16:00:13;9.00;39.70
47338;DHT22;33069;51.970;5.892;2023-03-01T16:02:41;8.80;41.00
47338;DHT22;33069;51.970;5.892;2023-03-01T16:05:33;8.90;41.20
47338;DHT22;33069;51.970;5.892;2023-03-01T16:08:02;8.80;40.70
47338;DHT22;33069;51.970;5.892;2023-03-01T16:10:28;9.00;40.80
47338;DHT22;33069;51.970;5.892;2023-03-01T16:12:54;8.80;40.20
47338;DHT22;33069;51.970;5.892;2023-03-01T16:15:22;8.90;40.80
47338;DHT22;33069;51.970;5.892;2023-03-01T16:17:48;8.80;39.90
47338;DHT22;33069;51.970;5.892;2023-03-01T16:20:15;8.70;40.00
47338;DHT22;33069;51.970;5.892;2023-03-01T16:22:44;8.60;39.80
47338;DHT22;33069;51.970;5.892;2023-03-01T16:25:12;8.60;40.70
47338;DHT22;33069;51.970;5.892;2023-03-01T16:27:38;8.80;39.40
47338;DHT22;33069;51.970;5.892;2023-03-01T16:30:07;8.30;40.20
47338;DHT22;33069;51.970;5.892;2023-03-01T16:32:38;8.40;39.50
47338;DHT22;33069;51.970;5.892;2023-03-01T16:35:05;8.50;40.00
47338;DHT22;33069;51.970;5.892;2023-03-01T16:37:33;8.30;39.90
47338;DHT22;33069;51.970;5.892;2023-03-01T16:39:59;8.20;40.50
47338;DHT22;33069;51.970;5.892;2023-03-01T16:42:25;8.20;40.60
47338;DHT22;33069;51.970;5.892;2023-03-01T16:44:57;8.20;40.30
47338;DHT22;33069;51.970;5.892;2023-03-01T16:47:22;8.10;40.40
47338;DHT22;33069;51.970;5.892;2023-03-01T16:49:57;8.30;40.70
47338;DHT22;33069;51.970;5.892;2023-03-01T16:52:23;8.00;40.50
47338;DHT22;33069;51.970;5.892;2023-03-01T16:54:48;7.70;41.60
47338;DHT22;33069;51.970;5.892;2023-03-01T16:57:14;7.90;41.80
47338;DHT22;33069;51.970;5.892;2023-03-01T16:59:40;7.90;42.30
47338;DHT22;33069;51.970;5.892;2023-03-01T17:02:08;7.80;42.10
47338;DHT22;33069;51.970;5.892;2023-03-01T17:04:36;7.50;42.20
47338;DHT22;33069;51.970;5.892;2023-03-01T17:07:02;7.40;43.10
47338;DHT22;33069;51.970;5.892;2023-03-01T17:09:28;7.40;43.60
47338;DHT22;33069;51.970;5.892;2023-03-01T17:11:54;7.40;43.20
47338;DHT22;33069;51.970;5.892;2023-03-01T17:14:20;7.10;43.70
47338;DHT22;33069;51.970;5.892;2023-03-01T17:16:45;7.10;44.60
47338;DHT22;33069;51.970;5.892;2023-03-01T17:19:11;6.80;44.70
47338;DHT22;33069;51.970;5.892;2023-03-01T17:21:43;6.60;45.20
47338;DHT22;33069;51.970;5.892;2023-03-01T17:24:09;6.50;46.50
47338;DHT22;33069;51.970;5.892;2023-03-01T17:26:35;6.40;46.80
47338;DHT22;33069;51.970;5.892;2023-03-01T17:29:00;6.40;46.70
47338;DHT22;33069;51.970;5.892;2023-03-01T17:31:26;6.30;46.90
47338;DHT22;33069;51.970;5.892;2023-03-01T17:33:52;6.10;47.20
47338;DHT22;33069;51.970;5.892;2023-03-01T17:36:18;6.10;47.50
47338;DHT22;33069;51.970;5.892;2023-03-01T17:38:43;6.10;47.60
47338;DHT22;33069;51.970;5.892;2023-03-01T17:41:10;6.00;48.70
47338;DHT22;33069;51.970;5.892;2023-03-01T17:43:36;5.80;48.70
47338;DHT22;33069;51.970;5.892;2023-03-01T17:46:03;5.80;48.90
47338;DHT22;33069;51.970;5.892;2023-03-01T17:48:28;5.70;49.50
47338;DHT22;33069;51.970;5.892;2023-03-01T17:50:54;5.80;49.20
47338;DHT22;33069;51.970;5.892;2023-03-01T17:53:20;5.70;49.60
47338;DHT22;33069;51.970;5.892;2023-03-01T17:55:46;5.70;49.50
47338;DHT22;33069;51.970;5.892;2023-03-01T17:58:19;5.50;50.00
47338;DHT22;33069;51.970;5.892;2023-03-01T18:00:48;5.50;49.90
47338;DHT22;33069;51.970;5.892;2023-03-01T18:03:15;5.70;49.70
47338;DHT22;33069;51.970;5.892;2023-03-01T18:05:41;5.80;50.00
47338;DHT22;33069;51.970;5.892;2023-03-01T18:08:07;5.70;50.00
47338;DHT22;33069;51.970;5.892;2023-03-01T18:10:33;5.90;50.40
47338;DHT22;33069;51.970;5.892;2023-03-01T18:13:01;6.00;49.70
47338;DHT22;33069;51.970;5.892;2023-03-01T18:15:27;5.70;50.80
47338;DHT22;33069;51.970;5.892;2023-03-01T18:17:53;5.70;50.00
47338;DHT22;33069;51.970;5.892;2023-03-01T18:20:19;5.80;50.30
47338;DHT22;33069;51.970;5.892;2023-03-01T18:22:45;5.60;51.30